page 4590 of 1003932 registered users

eBook PostsUsers

  1. 0clubbadger67 registered @ 2012-11-24 10:28:00, last login @ 2012-11-24 10:28:00
  2. 0irismoat6 registered @ 2012-11-24 10:28:50, last login @ 2012-11-24 10:28:50
  3. 0mileclam5 registered @ 2012-11-24 10:29:11, last login @ 2012-11-24 10:29:11
  4. 0motherwish81 registered @ 2012-11-24 10:30:20, last login @ 2012-11-24 10:56:25
  5. 0pimple4enemy registered @ 2012-11-24 10:30:34, last login @ 2012-11-24 11:00:42
  6. 0margin2temper registered @ 2012-11-24 10:30:51, last login @ 2012-11-24 10:30:51
  7. 0drake2father registered @ 2012-11-24 10:31:01, last login @ 2012-11-24 10:31:01
  8. 0pilotkitten05 registered @ 2012-11-24 10:31:15, last login @ 2012-11-24 10:31:15
  9. 0plaintire8 registered @ 2012-11-24 10:32:18, last login @ 2012-11-24 10:32:18
  10. 0yokefeast38 registered @ 2012-11-24 10:32:41, last login @ 2012-11-24 10:32:41
  11. 0boneflag56 registered @ 2012-11-24 10:33:32, last login @ 2012-11-24 10:33:32
  12. 0coat7alley registered @ 2012-11-24 10:34:19, last login @ 2012-11-24 10:34:19
  13. 0sheet88piano registered @ 2012-11-24 10:34:36, last login @ 2012-11-24 10:45:02
  14. 0archbaker51 registered @ 2012-11-24 10:35:17, last login @ 2012-11-24 10:35:17
  15. 0butterblouse6 registered @ 2012-11-24 10:35:26, last login @ 2012-11-24 10:35:26
  16. 0rubbernephew17 registered @ 2012-11-24 10:36:05, last login @ 2012-11-24 10:36:05
  17. 0shadenovel87 registered @ 2012-11-24 10:37:11, last login @ 2012-11-24 10:37:11
  18. 0familybeauty43 registered @ 2012-11-24 10:38:57, last login @ 2012-11-24 10:38:57
  19. 0housetaurus26 registered @ 2012-11-24 10:38:59, last login @ 2012-11-24 10:38:59
  20. 0stemmouse87 registered @ 2012-11-24 10:39:35, last login @ 2012-11-24 10:39:35
  21. 0outdoorwall740 registered @ 2012-11-24 10:39:57, last login @ 2012-11-24 10:39:57
  22. 0clock65cirrus registered @ 2012-11-24 10:40:13, last login @ 2012-11-24 10:40:13
  23. 0gaugeyard50 registered @ 2012-11-24 10:40:23, last login @ 2012-11-24 10:40:23
  24. 0supplypuppy11 registered @ 2012-11-24 10:40:24, last login @ 2012-11-24 10:40:24
  25. 0BryanHHopper registered @ 2012-11-24 10:40:34, last login @ 2012-11-24 10:51:41
  26. 0hateplanet6 registered @ 2012-11-24 10:42:48, last login @ 2012-11-24 10:42:48
  27. 0seedfarmer6 registered @ 2012-11-24 10:43:18, last login @ 2012-11-24 10:43:18
  28. 0waxlevel7 registered @ 2012-11-24 10:44:21, last login @ 2012-11-24 10:44:21
  29. 0runshorts8 registered @ 2012-11-24 10:44:39, last login @ 2012-11-24 10:44:39
  30. 0twig4iris registered @ 2012-11-24 10:44:53, last login @ 2012-11-24 10:44:53
  31. 0nation82click registered @ 2012-11-24 10:44:57, last login @ 2012-11-24 10:44:57
  32. 0bush30green registered @ 2012-11-24 10:46:00, last login @ 2012-11-24 10:46:00
  33. 0printgarden2 registered @ 2012-11-24 10:47:11, last login @ 2012-11-24 10:47:11
  34. 0oysterprofit4 registered @ 2012-11-24 10:48:14, last login @ 2012-11-24 10:48:14
  35. 0swim97shirt registered @ 2012-11-24 10:48:30, last login @ 2012-11-24 10:48:30
  36. 0mallethate2 registered @ 2012-11-24 10:48:33, last login @ 2012-11-24 10:48:33
  37. 0woolenzoo54 registered @ 2012-11-24 10:49:07, last login @ 2012-11-24 10:49:07
  38. 0scent11leo registered @ 2012-11-24 10:50:25, last login @ 2012-11-24 10:50:25
  39. 0firfight79 registered @ 2012-11-24 10:50:59, last login @ 2012-11-24 10:50:59
  40. 0maplejam0 registered @ 2012-11-24 10:51:14, last login @ 2012-11-24 10:51:14
  41. 0park8bun registered @ 2012-11-24 10:51:23, last login @ 2012-11-24 10:51:23
  42. 0systembrake4 registered @ 2012-11-24 10:52:58, last login @ 2012-11-24 10:52:58
  43. 0adviceshorts3 registered @ 2012-11-24 10:53:16, last login @ 2012-11-24 10:53:16
  44. 0fox4monkey registered @ 2012-11-24 10:56:57, last login @ 2012-11-24 10:56:57
  45. 0writer1column registered @ 2012-11-24 10:57:43, last login @ 2012-11-24 10:57:43
  46. 0soup08pear registered @ 2012-11-24 10:59:10, last login @ 2012-11-24 10:59:10
  47. 0woolen5chess registered @ 2012-11-24 10:59:22, last login @ 2012-11-24 10:59:22
  48. 0drama6slime registered @ 2012-11-24 11:00:19, last login @ 2012-11-24 11:00:19
  49. 0linen9crop registered @ 2012-11-24 11:00:47, last login @ 2012-11-24 11:00:47
  50. 0gunwinter9 registered @ 2012-11-24 11:01:20, last login @ 2012-11-24 11:01:20
  51. 0jury91back registered @ 2012-11-24 11:02:24, last login @ 2012-11-24 11:02:24
  52. 0corn1bra registered @ 2012-11-24 11:02:33, last login @ 2012-11-24 11:49:46
  53. 0rule3cycle registered @ 2012-11-24 11:04:39, last login @ 2012-11-24 11:04:39
  54. 0jasonroll32 registered @ 2012-11-24 11:05:38, last login @ 2012-11-24 11:05:38
  55. 0fender5dill registered @ 2012-11-24 11:06:08, last login @ 2012-11-24 11:06:08
  56. 0windhate9 registered @ 2012-11-24 11:07:18, last login @ 2012-11-24 11:43:31
  57. 0wordradish66 registered @ 2012-11-24 11:07:27, last login @ 2012-11-24 11:07:27
  58. 0india57pine registered @ 2012-11-24 11:07:30, last login @ 2012-11-24 11:23:51
  59. 0swampcoat03 registered @ 2012-11-24 11:07:42, last login @ 2012-11-24 11:07:42
  60. 0singereffect60 registered @ 2012-11-24 11:08:54, last login @ 2012-11-24 11:08:54
  61. 0wolf57cat registered @ 2012-11-24 11:09:19, last login @ 2012-11-24 11:09:19
  62. 0dock15cup registered @ 2012-11-24 11:09:28, last login @ 2012-11-24 11:09:28
  63. 0dramachive7 registered @ 2012-11-24 11:10:21, last login @ 2012-11-24 11:10:21
  64. 0pizza8ear registered @ 2012-11-24 11:10:30, last login @ 2012-11-24 11:10:30
  65. 0move96egg registered @ 2012-11-24 11:12:34, last login @ 2012-11-24 11:12:34
  66. 0lycra53shelf registered @ 2012-11-24 11:12:41, last login @ 2012-11-24 11:12:41
  67. 0porchwomen49 registered @ 2012-11-24 11:14:09, last login @ 2012-11-24 11:14:09
  68. 0hope1drake registered @ 2012-11-24 11:14:14, last login @ 2012-11-24 12:00:44
  69. 0grassscarf4 registered @ 2012-11-24 11:14:36, last login @ 2012-11-24 11:14:36
  70. 0twinehill23 registered @ 2012-11-24 11:14:49, last login @ 2012-11-24 11:14:49
  71. 0freezebutane8 registered @ 2012-11-24 11:16:40, last login @ 2012-11-24 11:16:40
  72. 0polo49mimosa registered @ 2012-11-24 11:17:06, last login @ 2012-11-24 11:17:06
  73. 0carbee87 registered @ 2012-11-24 11:17:34, last login @ 2012-11-24 11:17:34
  74. 0lilaccoat60 registered @ 2012-11-24 11:18:36, last login @ 2012-11-24 11:18:36
  75. 0breaddrill86 registered @ 2012-11-24 11:20:50, last login @ 2012-11-24 11:20:50
  76. 0server46felony registered @ 2012-11-24 11:21:01, last login @ 2012-11-24 11:21:01
  77. 0author5helium registered @ 2012-11-24 11:24:51, last login @ 2012-11-24 11:24:51
  78. 0zul registered @ 2012-11-24 11:25:55, last login @ 2012-11-24 11:25:55
  79. 0toilet2song registered @ 2012-11-24 11:26:57, last login @ 2012-11-24 11:26:57
  80. 0stock77alley registered @ 2012-11-24 11:27:58, last login @ 2012-11-24 11:27:58
  81. 0rotate9creek registered @ 2012-11-24 11:28:28, last login @ 2012-11-24 11:28:28
  82. 0memoryform79 registered @ 2012-11-24 11:28:58, last login @ 2012-11-24 11:28:58
  83. 0paint10camera registered @ 2012-11-24 11:29:39, last login @ 2012-11-24 11:29:39
  84. 0eastpimple8 registered @ 2012-11-24 11:29:54, last login @ 2012-11-24 11:29:54
  85. 0page3fender registered @ 2012-11-24 11:30:44, last login @ 2012-11-24 11:30:44
  86. 0robert45goal registered @ 2012-11-24 11:31:09, last login @ 2012-11-24 11:31:09
  87. 0keybowl2 registered @ 2012-11-24 11:31:45, last login @ 2012-11-24 11:31:45
  88. 0ruthbanker92 registered @ 2012-11-24 11:31:49, last login @ 2012-11-24 11:31:49
  89. 0beretlotion58 registered @ 2012-11-24 11:32:01, last login @ 2012-11-24 11:32:01
  90. 0dewgolf58 registered @ 2012-11-24 11:32:15, last login @ 2012-11-24 11:32:15
  91. 0puffin9energy registered @ 2012-11-24 11:32:18, last login @ 2012-11-24 11:32:18
  92. 0winter37waste registered @ 2012-11-24 11:34:17, last login @ 2012-11-24 11:34:17
  93. 0kitty4plain registered @ 2012-11-24 11:34:26, last login @ 2012-11-24 11:34:26
  94. 0liuzhengwang registered @ 2012-11-24 11:34:39, last login @ 2012-11-24 11:34:39
  95. 0BrianGWells registered @ 2012-11-24 11:37:00, last login @ 2012-11-24 11:49:41
  96. 0localwork858 registered @ 2012-11-24 11:38:04, last login @ 2012-11-24 11:38:04
  97. 0secure8nest registered @ 2012-11-24 11:38:18, last login @ 2012-11-24 11:38:18
  98. 0eightchive69 registered @ 2012-11-24 11:38:47, last login @ 2012-11-24 11:38:47
  99. 0freon39verse registered @ 2012-11-24 11:39:02, last login @ 2012-11-24 11:39:02
  100. 0mouse9height registered @ 2012-11-24 11:39:36, last login @ 2012-11-24 11:39:36
  101. 0rat8david registered @ 2012-11-24 11:39:43, last login @ 2012-11-24 11:39:43

More...

[4600] [4599] [4598] [4597] [4596] [4595] [4594] [4593] [4592] [4591] [4590] [4589] [4588] [4587] [4586] [4585] [4584] [4583] [4582] [4581] ...[1]
Back to Top